createdAt,value
2022-12-03T00:00:34.507Z,99.90
2022-12-03T00:03:01.566Z,99.90
2022-12-03T00:05:28.558Z,99.90
2022-12-03T00:07:55.515Z,99.90
2022-12-03T00:10:22.456Z,99.90
2022-12-03T00:12:49.358Z,99.90
2022-12-03T00:15:16.369Z,99.90
2022-12-03T00:17:43.264Z,99.90
2022-12-03T00:20:17.025Z,99.90
2022-12-03T00:22:43.887Z,99.90
2022-12-03T00:25:10.702Z,99.90
2022-12-03T00:27:37.515Z,99.90
2022-12-03T00:30:05.712Z,99.90
2022-12-03T00:32:32.579Z,99.90
2022-12-03T00:34:59.472Z,99.90
2022-12-03T00:37:26.372Z,99.90
2022-12-03T00:39:53.181Z,99.90
2022-12-03T00:42:20.026Z,99.90
2022-12-03T00:44:46.915Z,99.90
2022-12-03T00:47:14.010Z,99.90
2022-12-03T00:49:41.371Z,99.90
2022-12-03T00:52:08.256Z,99.90
2022-12-03T00:54:35.053Z,99.90
2022-12-03T00:57:01.934Z,99.90
2022-12-03T00:59:28.743Z,99.90
2022-12-03T01:01:55.733Z,99.90
2022-12-03T01:04:22.829Z,99.90
2022-12-03T01:06:49.766Z,99.90
2022-12-03T01:09:16.631Z,99.90
2022-12-03T01:11:43.542Z,99.90
2022-12-03T01:14:16.093Z,99.90
2022-12-03T01:16:43.589Z,99.90
2022-12-03T01:19:15.840Z,99.90
2022-12-03T01:21:48.128Z,99.90
2022-12-03T01:24:15.632Z,99.90
2022-12-03T01:26:42.575Z,99.90
2022-12-03T01:29:09.544Z,99.90
2022-12-03T01:31:55.181Z,99.90
2022-12-03T01:34:22.216Z,99.90
2022-12-03T01:36:49.146Z,99.90
2022-12-03T01:39:15.940Z,99.90
2022-12-03T01:41:42.796Z,99.90
2022-12-03T01:44:26.966Z,99.90
2022-12-03T01:46:56.252Z,99.90
2022-12-03T01:49:27.443Z,99.90
2022-12-03T01:51:55.136Z,99.90
2022-12-03T01:54:31.086Z,99.90
2022-12-03T01:56:58.869Z,99.90
2022-12-03T01:59:35.689Z,99.90
2022-12-03T02:02:14.523Z,99.90
2022-12-03T02:04:41.443Z,99.90
2022-12-03T02:07:22.897Z,99.90
2022-12-03T02:09:49.870Z,99.90
2022-12-03T02:12:32.069Z,99.90
2022-12-03T02:14:59.660Z,99.90
2022-12-03T02:17:27.964Z,99.90
2022-12-03T02:19:56.229Z,99.90
2022-12-03T02:22:36.413Z,99.90
2022-12-03T02:25:20.224Z,99.90
2022-12-03T02:27:48.369Z,99.90
2022-12-03T02:30:19.221Z,99.90
2022-12-03T02:32:47.063Z,99.90
2022-12-03T02:35:16.098Z,99.90
2022-12-03T02:37:44.984Z,99.90
2022-12-03T02:40:18.351Z,99.90
2022-12-03T02:42:46.010Z,99.90
2022-12-03T02:45:21.061Z,99.90
2022-12-03T02:47:52.577Z,99.90
2022-12-03T02:50:20.954Z,99.90
2022-12-03T02:52:49.605Z,99.90
2022-12-03T02:55:18.242Z,99.90
2022-12-03T02:57:48.448Z,99.90
2022-12-03T03:00:16.359Z,99.90
2022-12-03T03:02:44.946Z,99.90
2022-12-03T03:05:13.599Z,99.90
2022-12-03T03:07:41.634Z,99.90
2022-12-03T03:10:12.439Z,99.90
2022-12-03T03:12:39.675Z,99.90
2022-12-03T03:15:08.245Z,99.90
2022-12-03T03:17:35.652Z,99.90
2022-12-03T03:20:04.203Z,99.90
2022-12-03T03:22:35.755Z,99.90
2022-12-03T03:25:03.064Z,99.90
2022-12-03T03:27:30.336Z,99.90
2022-12-03T03:29:59.034Z,99.90
2022-12-03T03:32:27.660Z,99.90
2022-12-03T03:34:56.095Z,99.90
2022-12-03T03:37:23.878Z,99.90
2022-12-03T03:39:50.970Z,99.90
2022-12-03T03:42:18.039Z,99.90
2022-12-03T03:44:45.117Z,99.90
2022-12-03T03:47:12.812Z,99.90
2022-12-03T03:49:39.843Z,99.90
2022-12-03T03:52:07.022Z,99.90
2022-12-03T03:54:33.969Z,99.90
2022-12-03T03:57:00.874Z,99.90
2022-12-03T03:59:29.265Z,99.90
2022-12-03T04:01:57.278Z,99.90
2022-12-03T04:04:26.823Z,99.90
2022-12-03T04:06:53.776Z,99.90
2022-12-03T04:09:20.624Z,99.90
2022-12-03T04:12:06.352Z,99.90
2022-12-03T04:14:33.150Z,99.90
2022-12-03T04:16:59.991Z,99.90
2022-12-03T04:19:26.849Z,99.90
2022-12-03T04:22:12.245Z,99.90
2022-12-03T04:24:39.108Z,99.90
2022-12-03T04:27:24.435Z,99.90
2022-12-03T04:29:51.284Z,99.90
2022-12-03T04:32:36.790Z,99.90
2022-12-03T04:35:22.414Z,99.90
2022-12-03T04:37:49.266Z,99.90
2022-12-03T04:40:54.405Z,99.90
2022-12-03T04:43:21.505Z,99.90
2022-12-03T04:45:48.416Z,99.90
2022-12-03T04:48:15.479Z,99.90
2022-12-03T04:50:42.728Z,99.90
2022-12-03T04:53:09.743Z,99.90
2022-12-03T04:55:36.735Z,99.90
2022-12-03T04:58:03.920Z,99.90
2022-12-03T05:00:30.793Z,99.90
2022-12-03T05:02:57.870Z,99.90
2022-12-03T05:05:26.161Z,99.90
2022-12-03T05:07:53.051Z,99.90
2022-12-03T05:10:19.929Z,99.90
2022-12-03T05:12:46.765Z,99.90
2022-12-03T05:15:15.383Z,99.90
2022-12-03T05:17:42.184Z,99.90
2022-12-03T05:20:28.423Z,99.90
2022-12-03T05:22:55.339Z,99.90
2022-12-03T05:25:22.205Z,99.90
2022-12-03T05:27:49.070Z,99.90
2022-12-03T05:30:16.190Z,99.90
2022-12-03T05:32:42.995Z,99.90
2022-12-03T05:35:11.077Z,99.90
2022-12-03T05:37:37.933Z,99.90
2022-12-03T05:40:05.495Z,99.90
2022-12-03T05:42:50.890Z,99.90
2022-12-03T05:45:18.680Z,99.90
2022-12-03T05:47:45.798Z,99.90
2022-12-03T05:50:12.845Z,99.90
2022-12-03T05:52:39.663Z,99.90
2022-12-03T05:55:07.335Z,99.90
2022-12-03T05:57:34.351Z,99.90
2022-12-03T06:00:01.199Z,99.90
2022-12-03T06:02:28.151Z,99.90
2022-12-03T06:04:55.356Z,99.90
2022-12-03T06:07:22.494Z,99.90
2022-12-03T06:09:49.261Z,99.90
2022-12-03T06:12:16.100Z,99.90
2022-12-03T06:14:42.994Z,99.90
2022-12-03T06:17:09.876Z,99.90
2022-12-03T06:19:36.734Z,99.90
2022-12-03T06:22:03.639Z,99.90
2022-12-03T06:24:30.565Z,99.90
2022-12-03T06:26:57.535Z,99.90
2022-12-03T06:29:24.355Z,99.90
2022-12-03T06:31:51.154Z,99.90
2022-12-03T06:34:17.939Z,99.90
2022-12-03T06:36:44.847Z,99.90
2022-12-03T06:39:12.039Z,99.90
2022-12-03T06:41:39.119Z,99.90
2022-12-03T06:44:06.115Z,99.90
2022-12-03T06:46:33.132Z,99.90
2022-12-03T06:49:00.400Z,99.90
2022-12-03T06:51:27.203Z,99.90
2022-12-03T06:53:54.080Z,99.90
2022-12-03T06:56:22.463Z,99.90
2022-12-03T06:58:49.571Z,99.90
2022-12-03T07:01:16.486Z,99.90
2022-12-03T07:03:43.371Z,99.90
2022-12-03T07:06:10.277Z,99.90
2022-12-03T07:08:37.275Z,99.90
2022-12-03T07:11:04.258Z,99.90
2022-12-03T07:13:31.174Z,99.90
2022-12-03T07:15:58.061Z,99.90
2022-12-03T07:18:24.965Z,99.90
2022-12-03T07:20:51.762Z,99.90
2022-12-03T07:23:18.575Z,99.90
2022-12-03T07:25:45.379Z,99.90
2022-12-03T07:28:12.168Z,99.90
2022-12-03T07:30:38.997Z,99.90
2022-12-03T07:33:05.863Z,99.90
2022-12-03T07:35:32.670Z,99.90
2022-12-03T07:37:59.473Z,99.90
2022-12-03T07:40:26.356Z,99.90
2022-12-03T07:42:53.176Z,99.90
2022-12-03T07:45:20.025Z,99.90
2022-12-03T07:47:46.925Z,99.90
2022-12-03T07:50:13.800Z,99.90
2022-12-03T07:52:40.695Z,99.90
2022-12-03T07:55:08.012Z,99.90
2022-12-03T07:57:34.859Z,99.90
2022-12-03T08:00:01.805Z,99.90
2022-12-03T08:02:28.777Z,99.90
2022-12-03T08:04:55.891Z,99.90
2022-12-03T08:07:22.966Z,99.90
2022-12-03T08:09:50.492Z,99.90
2022-12-03T08:12:24.300Z,99.90
2022-12-03T08:14:51.407Z,99.90
2022-12-03T08:17:19.845Z,99.90
2022-12-03T08:19:48.206Z,99.90
2022-12-03T08:22:15.720Z,99.90
2022-12-03T08:24:43.825Z,99.90
2022-12-03T08:27:18.834Z,99.90
2022-12-03T08:29:46.212Z,99.90
2022-12-03T08:32:14.375Z,99.90
2022-12-03T08:34:43.468Z,99.90
2022-12-03T08:37:19.469Z,99.90
2022-12-03T08:39:48.528Z,99.90
2022-12-03T08:42:43.881Z,99.90
2022-12-03T08:45:39.688Z,99.90
2022-12-03T08:48:18.850Z,99.90
2022-12-03T08:50:46.712Z,99.90
2022-12-03T08:53:13.580Z,99.90
2022-12-03T08:55:48.269Z,99.90
2022-12-03T08:58:25.327Z,99.90
2022-12-03T09:01:05.773Z,99.90
2022-12-03T09:03:33.447Z,99.90
2022-12-03T09:06:00.413Z,99.90
2022-12-03T09:08:27.253Z,99.90
2022-12-03T09:10:54.197Z,99.90
2022-12-03T09:13:21.110Z,99.90
2022-12-03T09:15:47.953Z,99.90
2022-12-03T09:18:14.917Z,99.90
2022-12-03T09:20:41.809Z,99.90
2022-12-03T09:23:08.984Z,99.90
2022-12-03T09:25:37.141Z,99.90
2022-12-03T09:28:06.376Z,99.90
2022-12-03T09:30:33.177Z,99.90
2022-12-03T09:33:00.264Z,99.90
2022-12-03T09:35:27.701Z,99.90
2022-12-03T09:37:54.575Z,99.90
2022-12-03T09:40:21.528Z,99.90
2022-12-03T09:42:48.623Z,99.90
2022-12-03T09:45:16.666Z,99.90
2022-12-03T09:47:49.383Z,99.90
2022-12-03T09:50:21.776Z,99.90
2022-12-03T09:52:50.170Z,99.90
2022-12-03T09:55:21.657Z,99.90
2022-12-03T09:57:48.769Z,99.90
2022-12-03T10:00:18.843Z,99.90
2022-12-03T10:02:47.322Z,99.90
2022-12-03T10:05:17.320Z,99.90
2022-12-03T10:07:44.237Z,99.90
2022-12-03T10:10:17.139Z,99.90
2022-12-03T10:12:44.169Z,99.90
2022-12-03T10:15:16.040Z,99.90
2022-12-03T10:17:43.619Z,99.90
2022-12-03T10:20:15.354Z,99.90
2022-12-03T10:22:42.222Z,99.90
2022-12-03T10:25:14.563Z,99.90
2022-12-03T10:27:42.103Z,99.90
2022-12-03T10:30:18.497Z,99.90
2022-12-03T10:32:47.789Z,99.70
2022-12-03T10:35:20.844Z,99.80
2022-12-03T10:38:02.046Z,99.70
2022-12-03T10:40:32.129Z,99.90
2022-12-03T10:43:25.052Z,99.90
2022-12-03T10:46:11.504Z,99.90
2022-12-03T10:48:38.694Z,99.90
2022-12-03T10:51:27.323Z,99.90
2022-12-03T10:53:54.528Z,99.80
2022-12-03T10:56:26.077Z,99.90
2022-12-03T10:58:52.810Z,99.90
2022-12-03T11:01:22.471Z,99.90
2022-12-03T11:03:50.123Z,99.90
2022-12-03T11:06:35.069Z,99.00
2022-12-03T11:09:08.792Z,99.40
2022-12-03T11:11:36.472Z,99.80
2022-12-03T11:14:04.746Z,98.80
2022-12-03T11:16:40.676Z,98.50
2022-12-03T11:19:13.363Z,99.30
2022-12-03T11:22:11.548Z,98.90
2022-12-03T11:24:40.336Z,99.70
2022-12-03T11:27:17.979Z,99.70
2022-12-03T11:29:59.470Z,99.40
2022-12-03T11:32:38.476Z,99.90
2022-12-03T11:35:26.072Z,99.70
2022-12-03T11:37:53.308Z,99.50
2022-12-03T11:40:20.158Z,99.30
2022-12-03T11:42:48.451Z,99.40
2022-12-03T11:45:39.522Z,99.90
2022-12-03T11:48:14.830Z,99.90
2022-12-03T11:50:45.365Z,99.80
2022-12-03T11:53:19.950Z,99.90
2022-12-03T11:56:06.624Z,99.70
2022-12-03T11:58:35.251Z,99.30
2022-12-03T12:01:03.831Z,99.90
2022-12-03T12:03:49.131Z,99.90
2022-12-03T12:06:19.330Z,99.90
2022-12-03T12:08:52.269Z,99.90
2022-12-03T12:11:19.091Z,99.90
2022-12-03T12:13:52.798Z,99.90
2022-12-03T12:16:52.589Z,99.90
2022-12-03T12:19:43.329Z,99.90
2022-12-03T12:22:26.860Z,99.90
2022-12-03T12:24:55.398Z,99.90
2022-12-03T12:27:29.652Z,99.90
2022-12-03T12:30:02.158Z,99.90
2022-12-03T12:32:30.955Z,99.90
2022-12-03T12:35:33.417Z,99.90
2022-12-03T12:38:12.618Z,99.90
2022-12-03T12:40:42.547Z,99.90
2022-12-03T12:43:30.846Z,99.90
2022-12-03T12:46:18.798Z,99.90
2022-12-03T12:48:48.564Z,99.90
2022-12-03T12:51:18.938Z,99.90
2022-12-03T12:53:45.959Z,99.90
2022-12-03T12:56:24.599Z,99.90
2022-12-03T12:58:52.055Z,99.90
2022-12-03T13:01:26.952Z,99.90
2022-12-03T13:03:54.506Z,99.90
2022-12-03T13:06:26.763Z,99.90
2022-12-03T13:08:54.396Z,99.90
2022-12-03T13:11:42.045Z,99.90
2022-12-03T13:14:26.921Z,99.90
2022-12-03T13:16:56.084Z,99.90
2022-12-03T13:19:28.599Z,99.90
2022-12-03T13:22:23.087Z,99.90
2022-12-03T13:24:53.407Z,99.90
2022-12-03T13:27:20.259Z,99.90
2022-12-03T13:29:51.431Z,99.90
2022-12-03T13:32:22.302Z,99.90
2022-12-03T13:34:50.657Z,99.90
2022-12-03T13:37:28.224Z,99.90
2022-12-03T13:40:05.938Z,99.90
2022-12-03T13:42:39.010Z,99.90
2022-12-03T13:45:31.985Z,99.90
2022-12-03T13:48:13.686Z,99.90
2022-12-03T13:50:46.217Z,99.90
2022-12-03T13:53:24.918Z,99.90
2022-12-03T13:56:00.850Z,99.90
2022-12-03T13:58:27.643Z,99.90
2022-12-03T14:00:57.417Z,99.90
2022-12-03T14:03:24.379Z,99.90
2022-12-03T14:05:51.257Z,99.90
2022-12-03T14:08:18.198Z,99.90
2022-12-03T14:10:45.123Z,99.90
2022-12-03T14:13:11.990Z,99.90
2022-12-03T14:15:38.802Z,99.90
2022-12-03T14:18:05.705Z,99.90
2022-12-03T14:20:34.489Z,99.90
2022-12-03T14:23:01.326Z,99.90
2022-12-03T14:25:28.188Z,99.90
2022-12-03T14:27:55.175Z,99.90
2022-12-03T14:30:22.067Z,99.90
2022-12-03T14:32:49.021Z,99.90
2022-12-03T14:35:15.999Z,99.90
2022-12-03T14:37:42.905Z,99.90
2022-12-03T14:40:10.119Z,99.90
2022-12-03T14:42:37.305Z,99.90
2022-12-03T14:45:04.717Z,99.90
2022-12-03T14:47:33.674Z,99.90
2022-12-03T14:50:00.575Z,99.90
2022-12-03T14:52:27.985Z,99.90
2022-12-03T14:54:54.859Z,99.90
2022-12-03T14:57:21.704Z,99.90
2022-12-03T14:59:48.688Z,99.90
2022-12-03T15:02:16.239Z,99.90
2022-12-03T15:04:43.178Z,99.90
2022-12-03T15:07:10.595Z,99.90
2022-12-03T15:09:37.614Z,99.90
2022-12-03T15:12:04.911Z,99.90
2022-12-03T15:14:31.854Z,99.90
2022-12-03T15:16:59.008Z,99.90
2022-12-03T15:19:26.604Z,99.90
2022-12-03T15:21:53.506Z,99.90
2022-12-03T15:24:20.375Z,99.90
2022-12-03T15:26:47.290Z,99.90
2022-12-03T15:29:14.170Z,99.90
2022-12-03T15:31:41.228Z,99.90
2022-12-03T15:34:08.226Z,99.90
2022-12-03T15:36:36.278Z,99.90
2022-12-03T15:39:03.618Z,99.90
2022-12-03T15:41:30.715Z,99.90
2022-12-03T15:43:59.839Z,99.90
2022-12-03T15:46:28.032Z,99.90
2022-12-03T15:48:55.723Z,99.90
2022-12-03T15:51:22.833Z,99.90
2022-12-03T15:53:49.705Z,99.90
2022-12-03T15:56:16.926Z,99.90
2022-12-03T15:58:43.893Z,99.90
2022-12-03T16:01:10.849Z,99.90
2022-12-03T16:03:37.769Z,99.90
2022-12-03T16:06:04.964Z,99.90
2022-12-03T16:08:31.963Z,99.90
2022-12-03T16:10:58.805Z,99.90
2022-12-03T16:13:25.629Z,99.90
2022-12-03T16:15:52.557Z,99.90
2022-12-03T16:18:19.483Z,99.90
2022-12-03T16:20:46.366Z,99.90
2022-12-03T16:23:13.268Z,99.90
2022-12-03T16:25:40.109Z,99.90
2022-12-03T16:28:09.624Z,99.90
2022-12-03T16:30:37.912Z,99.90
2022-12-03T16:33:04.989Z,99.90
2022-12-03T16:35:31.803Z,99.90
2022-12-03T16:37:58.735Z,99.90
2022-12-03T16:40:26.673Z,99.90
2022-12-03T16:42:53.501Z,99.90
2022-12-03T16:45:40.668Z,99.90
2022-12-03T16:48:07.539Z,99.90
2022-12-03T16:50:37.574Z,99.90
2022-12-03T16:53:07.344Z,99.90
2022-12-03T16:55:34.221Z,99.90
2022-12-03T16:58:01.425Z,99.90
2022-12-03T17:00:28.836Z,99.90
2022-12-03T17:02:55.919Z,99.90
2022-12-03T17:05:24.254Z,99.90
2022-12-03T17:07:51.131Z,99.90
2022-12-03T17:10:18.212Z,99.90
2022-12-03T17:15:32.319Z,99.90
2022-12-03T17:17:59.166Z,99.90
2022-12-03T17:20:27.536Z,99.90
2022-12-03T17:22:54.349Z,99.90
2022-12-03T17:25:21.211Z,99.90
2022-12-03T17:27:48.142Z,99.90
2022-12-03T17:30:15.735Z,99.90
2022-12-03T17:32:42.995Z,99.90
2022-12-03T17:35:11.064Z,99.90
2022-12-03T17:37:38.287Z,99.90
2022-12-03T17:40:06.714Z,99.90
2022-12-03T17:42:33.763Z,99.90
2022-12-03T17:45:00.916Z,99.90
2022-12-03T17:47:27.874Z,99.90
2022-12-03T17:49:54.876Z,99.90
2022-12-03T17:52:22.166Z,99.90
2022-12-03T17:55:10.069Z,99.90
2022-12-03T17:57:36.405Z,99.90
2022-12-03T18:00:03.948Z,99.90
2022-12-03T18:02:30.807Z,99.90
2022-12-03T18:04:57.619Z,99.90
2022-12-03T18:07:24.537Z,99.90
2022-12-03T18:09:51.708Z,99.90
2022-12-03T18:12:18.677Z,99.90
2022-12-03T18:14:45.507Z,99.90
2022-12-03T18:17:13.840Z,99.90
2022-12-03T18:19:40.681Z,99.90
2022-12-03T18:22:07.597Z,99.90
2022-12-03T18:24:34.707Z,99.90
2022-12-03T18:27:02.959Z,99.90
2022-12-03T18:29:29.811Z,99.90
2022-12-03T18:31:56.952Z,99.90
2022-12-03T18:34:23.959Z,99.90
2022-12-03T18:36:51.004Z,99.90
2022-12-03T18:39:31.474Z,99.90
2022-12-03T18:41:59.540Z,99.90
2022-12-03T18:44:26.906Z,99.90
2022-12-03T18:46:54.659Z,99.90
2022-12-03T18:49:22.358Z,99.90
2022-12-03T18:51:52.093Z,99.90
2022-12-03T18:54:22.839Z,99.90
2022-12-03T18:56:49.707Z,99.90
2022-12-03T18:59:20.495Z,99.90
2022-12-03T19:01:47.426Z,99.90
2022-12-03T19:04:14.495Z,99.90
2022-12-03T19:06:41.469Z,99.90
2022-12-03T19:09:08.343Z,99.90
2022-12-03T19:11:35.330Z,99.90
2022-12-03T19:14:05.105Z,99.90
2022-12-03T19:16:32.407Z,99.90
2022-12-03T19:18:59.433Z,99.90
2022-12-03T19:21:30.678Z,99.90
2022-12-03T19:24:23.184Z,99.90
2022-12-03T19:26:47.551Z,99.90
2022-12-03T19:29:14.587Z,99.90
2022-12-03T19:31:41.851Z,99.90
2022-12-03T19:34:08.744Z,99.90
2022-12-03T19:36:36.985Z,99.90
2022-12-03T19:39:03.898Z,99.90
2022-12-03T19:41:30.842Z,99.90
2022-12-03T19:43:58.568Z,99.90
2022-12-03T19:46:31.366Z,99.90
2022-12-03T19:48:58.282Z,99.90
2022-12-03T19:51:34.684Z,99.90
2022-12-03T19:54:04.540Z,99.90
2022-12-03T19:56:31.689Z,99.90
2022-12-03T19:59:01.632Z,99.90
2022-12-03T20:01:31.288Z,99.90
2022-12-03T20:04:00.716Z,99.90
2022-12-03T20:06:30.240Z,99.90
2022-12-03T20:09:03.030Z,99.90
2022-12-03T20:11:32.514Z,99.90
2022-12-03T20:14:03.054Z,99.90
2022-12-03T20:16:30.289Z,99.90
2022-12-03T20:18:59.679Z,99.90
2022-12-03T20:21:27.161Z,99.90
2022-12-03T20:23:54.020Z,99.90
2022-12-03T20:26:22.214Z,99.90
2022-12-03T20:28:49.577Z,99.90
2022-12-03T20:31:18.965Z,99.90
2022-12-03T20:33:49.071Z,99.90
2022-12-03T20:36:17.639Z,99.90
2022-12-03T20:38:45.283Z,99.90
2022-12-03T20:41:18.737Z,99.90
2022-12-03T20:43:45.936Z,99.90
2022-12-03T20:46:23.431Z,99.90
2022-12-03T20:48:50.519Z,99.90
2022-12-03T20:51:19.584Z,99.90
2022-12-03T20:53:46.686Z,99.90
2022-12-03T20:56:35.095Z,99.90
2022-12-03T20:59:07.110Z,99.90
2022-12-03T21:01:37.011Z,99.90
2022-12-03T21:04:04.848Z,99.90
2022-12-03T21:06:34.317Z,99.90
2022-12-03T21:09:02.222Z,99.90
2022-12-03T21:11:31.602Z,99.90
2022-12-03T21:14:00.136Z,99.90
2022-12-03T21:17:06.648Z,99.90
2022-12-03T21:19:26.202Z,99.90
2022-12-03T21:21:53.440Z,99.90
2022-12-03T21:24:29.470Z,99.90
2022-12-03T21:27:05.612Z,99.90
2022-12-03T21:29:32.506Z,99.90
2022-12-03T21:31:59.523Z,99.90
2022-12-03T21:34:30.125Z,99.90
2022-12-03T21:37:01.263Z,99.90
2022-12-03T21:39:28.188Z,99.90
2022-12-03T21:42:34.487Z,99.90
2022-12-03T21:44:41.981Z,99.90
2022-12-03T21:47:14.318Z,99.90
2022-12-03T21:49:41.736Z,99.90
2022-12-03T21:52:08.711Z,99.90
2022-12-03T21:54:35.605Z,99.90
2022-12-03T21:57:02.517Z,99.90
2022-12-03T21:59:29.469Z,99.90
2022-12-03T22:01:56.378Z,99.90
2022-12-03T22:04:23.344Z,99.90
2022-12-03T22:06:50.231Z,99.90
2022-12-03T22:09:20.493Z,99.90
2022-12-03T22:11:50.079Z,99.90
2022-12-03T22:14:17.024Z,99.90
2022-12-03T22:16:43.889Z,99.90
2022-12-03T22:19:10.757Z,99.90
2022-12-03T22:21:37.620Z,99.90
2022-12-03T22:24:04.842Z,99.90
2022-12-03T22:26:31.732Z,99.90
2022-12-03T22:28:58.595Z,99.90
2022-12-03T22:31:25.454Z,99.90
2022-12-03T22:33:52.723Z,99.90
2022-12-03T22:36:21.777Z,99.90
2022-12-03T22:38:50.578Z,99.90
2022-12-03T22:41:18.074Z,99.90
2022-12-03T22:43:45.673Z,99.90
2022-12-03T22:46:13.460Z,99.90
2022-12-03T22:48:42.403Z,99.90
2022-12-03T22:51:17.878Z,99.90
2022-12-03T22:53:44.947Z,99.90
2022-12-03T22:56:12.084Z,99.90
2022-12-03T22:58:40.353Z,99.90
2022-12-03T23:01:08.011Z,99.90
2022-12-03T23:03:35.958Z,99.90
2022-12-03T23:06:10.839Z,99.90
2022-12-03T23:08:38.140Z,99.90
2022-12-03T23:11:04.988Z,99.90
2022-12-03T23:13:32.086Z,99.90
2022-12-03T23:15:59.352Z,99.90
2022-12-03T23:18:26.240Z,99.90
2022-12-03T23:20:55.603Z,99.90
2022-12-03T23:23:24.049Z,99.90
2022-12-03T23:26:05.954Z,99.90
2022-12-03T23:28:35.507Z,99.90
2022-12-03T23:31:03.313Z,99.90
2022-12-03T23:33:33.983Z,99.90
2022-12-03T23:36:06.020Z,99.90
2022-12-03T23:38:34.113Z,99.90
2022-12-03T23:41:06.266Z,99.90
2022-12-03T23:43:33.449Z,99.90
2022-12-03T23:46:08.969Z,99.90
2022-12-03T23:48:36.538Z,99.90
2022-12-03T23:51:09.267Z,99.90
2022-12-03T23:53:37.261Z,99.90
2022-12-03T23:56:12.582Z,99.90
2022-12-03T23:58:39.595Z,99.90
